createdAt,value
2023-05-09T00:00:00.157Z,98972.81
2023-05-09T00:03:06.376Z,98970.28
2023-05-09T00:06:14.006Z,98973.88
2023-05-09T00:09:20.185Z,98965.16
2023-05-09T00:12:27.275Z,98970.88
2023-05-09T00:15:36.299Z,98966.69
2023-05-09T00:18:43.004Z,98974.00
2023-05-09T00:21:49.482Z,98966.44
2023-05-09T00:24:56.708Z,98965.97
2023-05-09T00:28:02.808Z,98959.13
2023-05-09T00:31:12.338Z,98957.47
2023-05-09T00:34:18.416Z,98953.88
2023-05-09T00:37:25.443Z,98951.13
2023-05-09T00:40:36.603Z,98951.84
2023-05-09T00:43:43.470Z,98944.44
2023-05-09T00:46:52.441Z,98944.28
2023-05-09T00:50:01.278Z,98940.34
2023-05-09T00:53:13.146Z,98932.91
2023-05-09T00:56:22.070Z,98943.31
2023-05-09T00:59:34.557Z,98942.25
2023-05-09T01:02:45.433Z,98931.47
2023-05-09T01:06:01.858Z,98931.13
2023-05-09T01:09:27.601Z,98925.72
2023-05-09T01:12:49.555Z,98925.59
2023-05-09T01:16:17.594Z,98929.81
2023-05-09T01:20:00.182Z,98930.25
2023-05-09T01:23:38.278Z,98925.22
2023-05-09T01:27:19.020Z,98926.19
2023-05-09T01:30:34.316Z,98926.53
2023-05-09T01:33:45.478Z,98924.25
2023-05-09T01:36:59.094Z,98922.84
2023-05-09T01:40:15.500Z,98922.94
2023-05-09T01:43:27.095Z,98920.31
2023-05-09T01:46:37.968Z,98920.66
2023-05-09T01:49:47.781Z,98913.84
2023-05-09T01:53:01.379Z,98910.34
2023-05-09T01:56:17.325Z,98913.00
2023-05-09T01:59:33.274Z,98910.72
2023-05-09T02:02:44.693Z,98915.13
2023-05-09T02:05:53.796Z,98907.13
2023-05-09T02:09:01.954Z,98912.41
2023-05-09T02:12:08.732Z,98901.84
2023-05-09T02:15:16.735Z,98904.72
2023-05-09T02:18:25.351Z,98902.44
2023-05-09T02:21:32.258Z,98899.91
2023-05-09T02:24:39.145Z,98900.78
2023-05-09T02:27:49.623Z,98904.25
2023-05-09T02:31:05.024Z,98895.69
2023-05-09T02:34:16.470Z,98896.06
2023-05-09T02:37:24.032Z,98898.72
2023-05-09T02:40:33.516Z,98894.28
2023-05-09T02:43:39.459Z,98901.59
2023-05-09T02:46:46.648Z,98900.53
2023-05-09T02:50:01.377Z,98897.25
2023-05-09T02:53:15.963Z,98898.47
2023-05-09T02:56:28.662Z,98901.94
2023-05-09T02:59:35.539Z,98897.84
2023-05-09T03:02:42.937Z,98904.31
2023-05-09T03:05:58.148Z,98892.34
2023-05-09T03:09:04.160Z,98894.53
2023-05-09T03:12:12.122Z,98893.47
2023-05-09T03:15:24.046Z,98892.88
2023-05-09T03:18:31.331Z,98899.91
2023-05-09T03:21:40.030Z,98901.59
2023-05-09T03:25:03.986Z,98893.47
2023-05-09T03:28:09.992Z,98892.63
2023-05-09T03:31:19.520Z,98896.69
2023-05-09T03:34:25.439Z,98900.53
2023-05-09T03:37:35.037Z,98897.06
2023-05-09T03:40:41.745Z,98899.91
2023-05-09T03:43:50.774Z,98892.16
2023-05-09T03:46:56.632Z,98884.16
2023-05-09T03:50:06.064Z,98893.59
2023-05-09T03:53:15.826Z,98888.09
2023-05-09T03:56:26.173Z,98895.88
2023-05-09T03:59:33.120Z,98899.13
2023-05-09T04:02:41.104Z,98891.69
2023-05-09T04:05:50.779Z,98901.50
2023-05-09T04:09:11.982Z,98895.03
2023-05-09T04:12:20.630Z,98892.78
2023-05-09T04:15:28.308Z,98896.38
2023-05-09T04:18:36.868Z,98900.38
2023-05-09T04:21:44.972Z,98893.38
2023-05-09T04:24:53.548Z,98897.59
2023-05-09T04:28:00.933Z,98905.13
2023-05-09T04:31:07.731Z,98893.78
2023-05-09T04:34:15.930Z,98898.09
2023-05-09T04:37:22.319Z,98886.25
2023-05-09T04:40:38.770Z,98879.97
2023-05-09T04:43:44.939Z,98878.94
2023-05-09T04:47:01.559Z,98884.00
2023-05-09T04:50:25.489Z,98873.81
2023-05-09T04:53:32.306Z,98867.81
2023-05-09T04:56:42.473Z,98876.28
2023-05-09T04:59:50.037Z,98876.00
2023-05-09T05:02:56.224Z,98868.94
2023-05-09T05:06:06.625Z,98867.03
2023-05-09T05:09:14.190Z,98864.66
2023-05-09T05:12:23.724Z,98866.72
2023-05-09T05:15:29.865Z,98868.28
2023-05-09T05:18:37.461Z,98869.00
2023-05-09T05:21:44.819Z,98871.47
2023-05-09T05:24:52.351Z,98877.41
2023-05-09T05:28:01.620Z,98869.56
2023-05-09T05:31:08.848Z,98880.91
2023-05-09T05:34:16.670Z,98872.44
2023-05-09T05:37:24.455Z,98875.47
2023-05-09T05:40:30.437Z,98877.72
2023-05-09T05:43:43.237Z,98872.44
2023-05-09T05:46:49.440Z,98871.56
2023-05-09T05:49:57.167Z,98869.25
2023-05-09T05:53:03.696Z,98868.59
2023-05-09T05:56:11.173Z,98863.66
2023-05-09T05:59:20.003Z,98865.88
2023-05-09T06:02:27.155Z,98865.19
2023-05-09T06:05:33.961Z,98863.59
2023-05-09T06:08:41.357Z,98859.00
2023-05-09T06:11:47.943Z,98861.97
2023-05-09T06:14:57.322Z,98849.78
2023-05-09T06:18:03.712Z,98849.31
2023-05-09T06:21:11.026Z,98863.84
2023-05-09T06:24:31.633Z,98859.84
2023-05-09T06:27:42.042Z,98847.75
2023-05-09T06:30:50.800Z,98846.22
2023-05-09T06:33:57.609Z,98839.03
2023-05-09T06:37:03.554Z,98839.22
2023-05-09T06:40:12.582Z,98838.81
2023-05-09T06:43:18.559Z,98831.78
2023-05-09T06:46:28.140Z,98833.06
2023-05-09T06:49:36.293Z,98817.38
2023-05-09T06:52:43.721Z,98823.09
2023-05-09T06:55:49.925Z,98829.72
2023-05-09T06:58:56.848Z,98820.13
2023-05-09T07:02:06.829Z,98806.91
2023-05-09T07:05:14.059Z,98813.56
2023-05-09T07:08:20.400Z,98798.34
2023-05-09T07:11:27.403Z,98805.66
2023-05-09T07:14:37.296Z,98807.34
2023-05-09T07:17:47.069Z,98806.84
2023-05-09T07:20:53.094Z,98797.94
2023-05-09T07:23:59.868Z,98801.44
2023-05-09T07:27:06.822Z,98804.06
2023-05-09T07:30:14.896Z,98798.84
2023-05-09T07:33:23.854Z,98805.19
2023-05-09T07:36:30.822Z,98799.53
2023-05-09T07:39:41.300Z,98799.09
2023-05-09T07:42:54.421Z,98792.34
2023-05-09T07:46:00.436Z,98794.53
2023-05-09T07:49:09.947Z,98806.44
2023-05-09T07:52:17.610Z,98786.66
2023-05-09T07:55:26.539Z,98779.38
2023-05-09T07:58:32.499Z,98787.50
2023-05-09T08:01:39.432Z,98786.34
2023-05-09T08:04:49.287Z,98789.84
2023-05-09T08:07:56.097Z,98778.25
2023-05-09T08:11:02.243Z,98772.44
2023-05-09T08:14:09.061Z,98765.34
2023-05-09T08:17:15.048Z,98780.88
2023-05-09T08:20:25.996Z,98778.63
2023-05-09T08:23:32.812Z,98771.31
2023-05-09T08:26:39.599Z,98778.91
2023-05-09T08:29:46.408Z,98766.47
2023-05-09T08:32:59.507Z,98772.66
2023-05-09T08:36:09.493Z,98772.69
2023-05-09T08:39:16.301Z,98752.84
2023-05-09T08:42:26.786Z,98772.31
2023-05-09T08:45:37.170Z,98759.56
2023-05-09T08:48:46.471Z,98753.31
2023-05-09T08:51:56.353Z,98766.69
2023-05-09T08:55:04.059Z,98756.38
2023-05-09T08:58:12.774Z,98747.78
2023-05-09T09:01:22.092Z,98759.34
2023-05-09T09:04:29.065Z,98758.50
2023-05-09T09:07:39.775Z,98759.22
2023-05-09T09:10:50.254Z,98759.44
2023-05-09T09:13:59.113Z,98758.16
2023-05-09T09:17:09.439Z,98766.72
2023-05-09T09:20:27.682Z,98756.06
2023-05-09T09:23:40.982Z,98762.06
2023-05-09T09:26:52.000Z,98755.88
2023-05-09T09:30:14.629Z,98748.72
2023-05-09T09:33:24.345Z,98747.09
2023-05-09T09:36:32.737Z,98733.28
2023-05-09T09:39:41.285Z,98735.59
2023-05-09T09:42:50.087Z,98734.94
2023-05-09T09:45:58.286Z,98727.47
2023-05-09T09:49:05.208Z,98742.75
2023-05-09T09:52:11.115Z,98729.25
2023-05-09T09:55:27.891Z,98729.75
2023-05-09T09:58:36.066Z,98738.84
2023-05-09T10:02:06.106Z,98734.63
2023-05-09T10:05:15.838Z,98714.69
2023-05-09T10:08:22.844Z,98716.41
2023-05-09T10:11:31.721Z,98714.44
2023-05-09T10:14:41.553Z,98712.75
2023-05-09T10:17:47.888Z,98726.81
2023-05-09T10:20:56.707Z,98710.69
2023-05-09T10:24:06.400Z,98705.53
2023-05-09T10:27:18.825Z,98704.75
2023-05-09T10:30:34.219Z,98697.81
2023-05-09T10:33:49.873Z,98704.00
2023-05-09T10:36:57.789Z,98703.41
2023-05-09T10:40:09.595Z,98700.63
2023-05-09T10:43:22.088Z,98691.41
2023-05-09T10:46:31.613Z,98684.41
2023-05-09T10:49:38.331Z,98682.16
2023-05-09T10:53:14.482Z,98687.81
2023-05-09T10:56:29.496Z,98688.97
2023-05-09T10:59:44.022Z,98669.97
2023-05-09T11:03:10.906Z,98674.94
2023-05-09T11:06:51.388Z,98672.47
2023-05-09T11:10:12.915Z,98670.41
2023-05-09T11:13:23.865Z,98664.41
2023-05-09T11:16:32.433Z,98652.63
2023-05-09T11:19:57.031Z,98654.91
2023-05-09T11:23:09.012Z,98650.94
2023-05-09T11:26:18.296Z,98650.09
2023-05-09T11:29:29.776Z,98645.50
2023-05-09T11:32:49.391Z,98631.50
2023-05-09T11:36:25.854Z,98623.03
2023-05-09T11:39:33.037Z,98625.88
2023-05-09T11:42:39.881Z,98625.28
2023-05-09T11:45:50.046Z,98609.50
2023-05-09T11:48:58.762Z,98615.13
2023-05-09T11:52:05.469Z,98606.50
2023-05-09T11:55:14.717Z,98615.25
2023-05-09T11:58:21.999Z,98607.31
2023-05-09T12:01:29.584Z,98595.44
2023-05-09T12:04:39.896Z,98598.81
2023-05-09T12:07:46.620Z,98594.88
2023-05-09T12:10:53.846Z,98583.03
2023-05-09T12:13:59.757Z,98577.28
2023-05-09T12:17:06.680Z,98576.22
2023-05-09T12:20:16.424Z,98570.59
2023-05-09T12:23:23.692Z,98569.00
2023-05-09T12:26:30.233Z,98572.44
2023-05-09T12:29:38.761Z,98577.97
2023-05-09T12:32:47.145Z,98565.56
2023-05-09T12:36:11.598Z,98565.31
2023-05-09T12:39:22.723Z,98557.47
2023-05-09T12:42:31.738Z,98551.69
2023-05-09T12:45:38.695Z,98543.22
2023-05-09T12:48:50.626Z,98548.53
2023-05-09T12:52:05.764Z,98548.38
2023-05-09T12:55:17.195Z,98539.28
2023-05-09T12:58:23.259Z,98535.75
2023-05-09T13:01:37.959Z,98523.56
2023-05-09T13:04:48.853Z,98527.47
2023-05-09T13:08:00.999Z,98521.31
2023-05-09T13:11:18.680Z,98516.31
2023-05-09T13:14:30.372Z,98521.81
2023-05-09T13:17:36.439Z,98511.22
2023-05-09T13:20:43.864Z,98507.38
2023-05-09T13:23:53.037Z,98504.91
2023-05-09T13:26:59.833Z,98511.72
2023-05-09T13:30:07.936Z,98502.09
2023-05-09T13:33:25.409Z,98490.28
2023-05-09T13:36:32.911Z,98505.75
2023-05-09T13:39:42.357Z,98497.13
2023-05-09T13:42:49.227Z,98488.44
2023-05-09T13:45:56.102Z,98485.94
2023-05-09T13:49:05.010Z,98490.91
2023-05-09T13:52:12.406Z,98480.28
2023-05-09T13:55:23.656Z,98481.75
2023-05-09T13:58:30.472Z,98468.72
2023-05-09T14:01:36.614Z,98471.63
2023-05-09T14:04:44.317Z,98455.34
2023-05-09T14:07:52.781Z,98463.44
2023-05-09T14:11:04.262Z,98462.16
2023-05-09T14:14:10.266Z,98464.00
2023-05-09T14:17:17.268Z,98453.13
2023-05-09T14:20:24.171Z,98449.81
2023-05-09T14:23:32.036Z,98450.41
2023-05-09T14:26:42.013Z,98446.69
2023-05-09T14:29:49.753Z,98442.97
2023-05-09T14:32:55.974Z,98446.31
2023-05-09T14:36:05.104Z,98448.97
2023-05-09T14:39:11.225Z,98444.25
2023-05-09T14:42:21.082Z,98436.75
2023-05-09T14:45:27.137Z,98441.69
2023-05-09T14:48:34.137Z,98429.16
2023-05-09T14:51:40.203Z,98440.28
2023-05-09T14:54:46.968Z,98428.13
2023-05-09T14:57:55.619Z,98426.47
2023-05-09T15:01:03.024Z,98422.31
2023-05-09T15:04:09.774Z,98430.19
2023-05-09T15:07:16.508Z,98416.75
2023-05-09T15:10:22.574Z,98406.59
2023-05-09T15:13:32.142Z,98415.66
2023-05-09T15:16:40.032Z,98401.66
2023-05-09T15:19:47.263Z,98391.72
2023-05-09T15:22:56.494Z,98385.94
2023-05-09T15:26:03.249Z,98383.91
2023-05-09T15:29:13.447Z,98387.59
2023-05-09T15:32:20.724Z,98377.28
2023-05-09T15:35:27.005Z,98376.25
2023-05-09T15:38:33.688Z,98377.09
2023-05-09T15:41:42.983Z,98378.72
2023-05-09T15:44:53.172Z,98379.75
2023-05-09T15:47:59.167Z,98372.13
2023-05-09T15:51:06.048Z,98380.19
2023-05-09T15:54:11.997Z,98372.34
2023-05-09T15:57:20.123Z,98373.56
2023-05-09T16:00:38.583Z,98367.78
2023-05-09T16:03:45.515Z,98360.94
2023-05-09T16:06:52.513Z,98361.41
2023-05-09T16:10:00.253Z,98354.56
2023-05-09T16:13:06.319Z,98347.34
2023-05-09T16:16:16.061Z,98348.78
2023-05-09T16:19:30.883Z,98347.94
2023-05-09T16:22:37.795Z,98340.31
2023-05-09T16:25:45.208Z,98341.75
2023-05-09T16:28:52.359Z,98348.34
2023-05-09T16:32:01.008Z,98337.81
2023-05-09T16:35:22.753Z,98336.78
2023-05-09T16:38:29.194Z,98332.25
2023-05-09T16:41:36.000Z,98331.00
2023-05-09T16:44:42.170Z,98323.56
2023-05-09T16:47:51.726Z,98319.59
2023-05-09T16:50:57.756Z,98322.22
2023-05-09T16:54:09.990Z,98329.22
2023-05-09T16:57:19.798Z,98318.88
2023-05-09T17:00:39.961Z,98311.28
2023-05-09T17:03:48.927Z,98308.72
2023-05-09T17:06:55.996Z,98310.00
2023-05-09T17:10:02.258Z,98303.81
2023-05-09T17:13:09.701Z,98304.69
2023-05-09T17:16:16.406Z,98294.97
2023-05-09T17:19:28.756Z,98299.91
2023-05-09T17:22:41.785Z,98302.09
2023-05-09T17:25:52.242Z,98299.81
2023-05-09T17:28:58.257Z,98298.75
2023-05-09T17:32:07.913Z,98303.03
2023-05-09T17:35:19.639Z,98304.56
2023-05-09T17:38:26.540Z,98311.31
2023-05-09T17:41:38.932Z,98303.66
2023-05-09T17:44:47.864Z,98301.34
2023-05-09T17:47:53.903Z,98311.34
2023-05-09T17:51:09.934Z,98306.31
2023-05-09T17:54:22.187Z,98300.88
2023-05-09T17:57:29.161Z,98305.19
2023-05-09T18:00:41.949Z,98290.38
2023-05-09T18:03:51.196Z,98302.78
2023-05-09T18:07:00.118Z,98298.91
2023-05-09T18:10:15.517Z,98295.53
2023-05-09T18:13:21.812Z,98297.56
2023-05-09T18:16:28.711Z,98299.56
2023-05-09T18:19:35.760Z,98295.63
2023-05-09T18:22:45.067Z,98298.22
2023-05-09T18:25:51.486Z,98287.28
2023-05-09T18:28:58.422Z,98297.16
2023-05-09T18:32:04.993Z,98293.28
2023-05-09T18:35:12.927Z,98306.81
2023-05-09T18:38:21.474Z,98300.00
2023-05-09T18:41:34.259Z,98306.19
2023-05-09T18:44:40.294Z,98310.88
2023-05-09T18:47:47.178Z,98305.09
2023-05-09T18:50:54.306Z,98312.63
2023-05-09T18:54:03.839Z,98312.06
2023-05-09T18:57:10.252Z,98315.31
2023-05-09T19:00:19.101Z,98305.44
2023-05-09T19:03:25.833Z,98310.13
2023-05-09T19:06:34.946Z,98315.66
2023-05-09T19:09:45.035Z,98312.31
2023-05-09T19:12:52.312Z,98313.06
2023-05-09T19:15:59.606Z,98310.94
2023-05-09T19:19:06.440Z,98302.66
2023-05-09T19:22:12.455Z,98302.66
2023-05-09T19:25:22.474Z,98299.88
2023-05-09T19:28:28.643Z,98304.09
2023-05-09T19:31:35.428Z,98306.13
2023-05-09T19:34:41.471Z,98291.19
2023-05-09T19:37:50.447Z,98288.88
2023-05-09T19:40:59.503Z,98288.97
2023-05-09T19:44:07.552Z,98292.34
2023-05-09T19:47:14.029Z,98296.81
2023-05-09T19:50:21.463Z,98300.38
2023-05-09T19:53:36.130Z,98295.59
2023-05-09T19:56:45.577Z,98294.22
2023-05-09T19:59:52.343Z,98289.94
2023-05-09T20:03:02.852Z,98298.63
2023-05-09T20:06:09.366Z,98292.53
2023-05-09T20:09:21.116Z,98296.69
2023-05-09T20:12:30.364Z,98300.06
2023-05-09T20:15:37.610Z,98295.41
2023-05-09T20:19:01.375Z,98287.94
2023-05-09T20:22:09.242Z,98290.94
2023-05-09T20:25:15.660Z,98289.63
2023-05-09T20:28:25.224Z,98284.34
2023-05-09T20:31:31.567Z,98291.31
2023-05-09T20:34:38.454Z,98288.59
2023-05-09T20:37:44.674Z,98301.75
2023-05-09T20:40:51.450Z,98291.81
2023-05-09T20:44:04.534Z,98295.50
2023-05-09T20:47:11.812Z,98291.84
2023-05-09T20:50:18.141Z,98294.03
2023-05-09T20:53:26.805Z,98288.09
2023-05-09T20:56:34.001Z,98288.09
2023-05-09T20:59:44.393Z,98288.28
2023-05-09T21:02:50.373Z,98281.16
2023-05-09T21:05:57.490Z,98281.81
2023-05-09T21:09:03.728Z,98279.50
2023-05-09T21:12:11.393Z,98275.88
2023-05-09T21:15:20.453Z,98278.22
2023-05-09T21:18:27.783Z,98277.59
2023-05-09T21:21:34.728Z,98265.94
2023-05-09T21:24:41.400Z,98277.41
2023-05-09T21:27:47.869Z,98271.94
2023-05-09T21:31:00.224Z,98281.75
2023-05-09T21:34:10.321Z,98277.09
2023-05-09T21:37:17.208Z,98267.97
2023-05-09T21:40:25.963Z,98269.97
2023-05-09T21:43:32.784Z,98275.44
2023-05-09T21:46:46.523Z,98269.97
2023-05-09T21:49:53.469Z,98272.44
2023-05-09T21:53:00.747Z,98268.00
2023-05-09T21:56:08.624Z,98263.97
2023-05-09T21:59:14.461Z,98262.66
2023-05-09T22:02:24.026Z,98269.50
2023-05-09T22:05:30.154Z,98272.97
2023-05-09T22:08:36.900Z,98272.78
2023-05-09T22:11:42.907Z,98271.94
2023-05-09T22:14:56.329Z,98272.09
2023-05-09T22:18:05.718Z,98274.63
2023-05-09T22:21:12.989Z,98271.78
2023-05-09T22:24:18.812Z,98258.69
2023-05-09T22:27:25.654Z,98259.66
2023-05-09T22:30:38.068Z,98262.50
2023-05-09T22:33:47.469Z,98251.91
2023-05-09T22:36:56.366Z,98249.72
2023-05-09T22:40:03.732Z,98249.72
2023-05-09T22:43:10.904Z,98246.06
2023-05-09T22:46:17.636Z,98254.38
2023-05-09T22:49:26.813Z,98250.69
2023-05-09T22:52:33.568Z,98248.38
2023-05-09T22:55:39.777Z,98254.50
2023-05-09T22:58:46.911Z,98248.19
2023-05-09T23:01:53.828Z,98246.50
2023-05-09T23:05:03.553Z,98249.97
2023-05-09T23:08:09.603Z,98246.50
2023-05-09T23:11:16.301Z,98240.66
2023-05-09T23:14:22.356Z,98246.81
2023-05-09T23:17:32.081Z,98233.38
2023-05-09T23:20:40.669Z,98244.00
2023-05-09T23:23:47.407Z,98242.00
2023-05-09T23:26:53.372Z,98233.66
2023-05-09T23:30:00.223Z,98233.50
2023-05-09T23:33:06.339Z,98230.34
2023-05-09T23:36:15.943Z,98225.69
2023-05-09T23:39:21.980Z,98217.56
2023-05-09T23:42:29.161Z,98217.72
2023-05-09T23:45:40.863Z,98218.03
2023-05-09T23:48:47.677Z,98213.69
2023-05-09T23:51:57.292Z,98214.06
2023-05-09T23:55:04.099Z,98213.19
2023-05-09T23:58:10.115Z,98211.69
